createdAt,value
2019-05-25T00:01:36.539Z,61.73
2019-05-25T00:04:05.310Z,61.88
2019-05-25T00:06:33.774Z,61.69
2019-05-25T00:09:02.367Z,61.94
2019-05-25T00:11:30.840Z,63.39
2019-05-25T00:13:59.313Z,64.67
2019-05-25T00:16:28.089Z,64.79
2019-05-25T00:18:56.562Z,65.77
2019-05-25T00:21:25.129Z,65.34
2019-05-25T00:23:53.672Z,64.17
2019-05-25T00:26:22.167Z,64.32
2019-05-25T00:28:50.641Z,64.17
2019-05-25T00:31:19.210Z,64.41
2019-05-25T00:33:47.685Z,64.01
2019-05-25T00:36:16.189Z,64.20
2019-05-25T00:38:44.664Z,63.71
2019-05-25T00:41:13.151Z,63.38
2019-05-25T00:43:41.639Z,63.56
2019-05-25T00:46:10.114Z,64.02
2019-05-25T00:48:38.595Z,65.24
2019-05-25T00:51:07.067Z,68.56
2019-05-25T00:53:35.555Z,68.29
2019-05-25T00:56:04.719Z,67.01
2019-05-25T00:58:33.201Z,65.75
2019-05-25T01:01:01.724Z,65.75
2019-05-25T01:03:30.242Z,66.52
2019-05-25T01:05:58.713Z,66.61
2019-05-25T01:08:27.219Z,65.99
2019-05-25T01:10:55.776Z,65.21
2019-05-25T01:13:24.296Z,64.47
2019-05-25T01:15:52.766Z,64.43
2019-05-25T01:18:21.284Z,64.42
2019-05-25T01:20:49.768Z,64.91
2019-05-25T01:23:18.236Z,65.57
2019-05-25T01:25:46.751Z,65.70
2019-05-25T01:28:15.245Z,65.37
2019-05-25T01:30:43.747Z,65.49
2019-05-25T01:33:12.232Z,66.07
2019-05-25T01:35:40.742Z,66.70
2019-05-25T01:38:09.224Z,65.44
2019-05-25T01:40:37.719Z,65.44
2019-05-25T01:43:06.206Z,65.56
2019-05-25T01:45:34.780Z,64.79
2019-05-25T01:48:03.233Z,64.63
2019-05-25T01:50:31.704Z,64.66
2019-05-25T01:53:00.217Z,64.38
2019-05-25T01:55:28.687Z,64.15
2019-05-25T01:57:57.197Z,64.30
2019-05-25T02:00:25.810Z,64.25
2019-05-25T02:02:54.321Z,64.27
2019-05-25T02:05:22.792Z,64.81
2019-05-25T02:07:51.256Z,65.08
2019-05-25T02:10:19.814Z,65.93
2019-05-25T02:12:48.314Z,66.96
2019-05-25T02:15:16.928Z,67.28
2019-05-25T02:17:45.431Z,67.29
2019-05-25T02:20:14.450Z,67.90
2019-05-25T02:22:42.959Z,67.81
2019-05-25T02:25:18.054Z,68.22
2019-05-25T02:27:42.142Z,67.59
2019-05-25T02:30:12.712Z,67.08
2019-05-25T02:32:41.203Z,66.83
2019-05-25T02:35:11.356Z,67.38
2019-05-25T02:37:39.834Z,68.60
2019-05-25T02:40:08.491Z,69.54
2019-05-25T02:42:37.020Z,68.80
2019-05-25T02:45:07.123Z,69.78
2019-05-25T02:47:35.619Z,68.49
2019-05-25T02:50:07.033Z,68.05
2019-05-25T02:52:34.827Z,67.02
2019-05-25T02:55:03.505Z,66.80
2019-05-25T02:57:31.973Z,66.68
2019-05-25T03:00:00.479Z,67.02
2019-05-25T03:02:28.955Z,66.60
2019-05-25T03:04:57.534Z,67.26
2019-05-25T03:07:27.154Z,67.21
2019-05-25T03:09:57.965Z,69.33
2019-05-25T03:12:26.880Z,69.49
2019-05-25T03:14:55.359Z,69.94
2019-05-25T03:17:23.892Z,71.29
2019-05-25T03:19:52.461Z,72.14
2019-05-25T03:22:20.926Z,70.55
2019-05-25T03:24:49.424Z,71.72
2019-05-25T03:27:17.897Z,72.94
2019-05-25T03:29:46.403Z,71.33
2019-05-25T03:32:14.917Z,70.77
2019-05-25T03:34:43.393Z,69.54
2019-05-25T03:37:11.871Z,67.76
2019-05-25T03:39:40.337Z,66.20
2019-05-25T03:42:08.820Z,65.61
2019-05-25T03:44:37.334Z,64.13
2019-05-25T03:47:05.870Z,62.82
2019-05-25T03:49:34.373Z,61.38
2019-05-25T03:52:02.842Z,60.17
2019-05-25T03:54:31.322Z,61.00
2019-05-25T03:56:59.800Z,59.50
2019-05-25T03:59:28.282Z,58.29
2019-05-25T04:01:56.755Z,58.64
2019-05-25T04:04:25.259Z,62.15
2019-05-25T04:06:53.730Z,61.34
2019-05-25T04:09:22.224Z,58.49
2019-05-25T04:11:50.699Z,57.24
2019-05-25T04:14:19.190Z,56.86
2019-05-25T04:16:47.661Z,55.41
2019-05-25T04:19:16.170Z,54.33
2019-05-25T04:21:44.646Z,54.33
2019-05-25T04:24:16.271Z,54.37
2019-05-25T04:26:44.810Z,54.96
2019-05-25T04:29:13.284Z,54.80
2019-05-25T04:31:42.045Z,55.91
2019-05-25T04:34:10.512Z,55.32
2019-05-25T04:36:38.997Z,56.29
2019-05-25T04:39:08.308Z,55.29
2019-05-25T04:41:36.797Z,55.50
2019-05-25T04:44:05.418Z,55.04
2019-05-25T04:46:33.898Z,54.03
2019-05-25T04:49:02.406Z,54.60
2019-05-25T04:51:31.473Z,53.94
2019-05-25T04:53:59.978Z,54.00
2019-05-25T04:56:38.746Z,54.57
2019-05-25T04:58:58.690Z,54.74
2019-05-25T05:01:27.176Z,54.56
2019-05-25T05:03:55.717Z,55.54
2019-05-25T05:06:24.189Z,55.33
2019-05-25T05:08:52.661Z,55.22
2019-05-25T05:11:21.164Z,54.66
2019-05-25T05:13:49.922Z,54.69
2019-05-25T05:16:18.412Z,55.27
2019-05-25T05:18:46.987Z,55.30
2019-05-25T05:21:15.545Z,55.17
2019-05-25T05:23:44.055Z,54.77
2019-05-25T05:26:12.522Z,55.45
2019-05-25T05:28:41.079Z,55.47
2019-05-25T05:31:22.820Z,56.20
2019-05-25T05:33:39.862Z,54.81
2019-05-25T05:36:08.487Z,55.20
2019-05-25T05:38:37.343Z,55.58
2019-05-25T05:41:09.022Z,55.19
2019-05-25T05:43:38.135Z,54.94
2019-05-25T05:46:07.916Z,54.65
2019-05-25T05:48:38.439Z,54.25
2019-05-25T05:51:10.188Z,53.15
2019-05-25T05:53:41.277Z,53.76
2019-05-25T05:56:09.761Z,54.18
2019-05-25T05:58:38.230Z,55.51
2019-05-25T06:01:06.736Z,55.93
2019-05-25T06:03:35.203Z,54.97
2019-05-25T06:06:03.702Z,53.74
2019-05-25T06:08:32.180Z,52.50
2019-05-25T06:11:00.699Z,52.52
2019-05-25T06:13:29.175Z,52.24
2019-05-25T06:15:57.684Z,52.10
2019-05-25T06:18:26.239Z,52.68
2019-05-25T06:20:54.728Z,51.53
2019-05-25T06:23:23.463Z,51.26
2019-05-25T06:25:51.965Z,51.60
2019-05-25T06:28:22.468Z,51.39
2019-05-25T06:30:50.803Z,51.68
2019-05-25T06:33:19.300Z,50.88
2019-05-25T06:35:47.764Z,50.84
2019-05-25T06:38:16.319Z,50.79
2019-05-25T06:40:44.797Z,50.24
2019-05-25T06:43:13.375Z,49.54
2019-05-25T06:45:42.134Z,48.21
2019-05-25T06:48:10.608Z,47.07
2019-05-25T06:50:39.172Z,46.51
2019-05-25T06:53:07.672Z,45.62
2019-05-25T06:55:36.288Z,46.86
2019-05-25T06:58:05.446Z,45.84
2019-05-25T07:00:34.008Z,45.73
2019-05-25T07:03:02.526Z,45.40
2019-05-25T07:05:30.983Z,45.30
2019-05-25T07:07:59.457Z,45.50
2019-05-25T07:10:27.948Z,45.29
2019-05-25T07:12:56.417Z,45.37
2019-05-25T07:15:24.993Z,46.39
2019-05-25T07:17:53.511Z,44.04
2019-05-25T07:20:22.248Z,43.27
2019-05-25T07:22:50.979Z,43.42
2019-05-25T07:25:20.546Z,43.81
2019-05-25T07:27:58.846Z,42.65
2019-05-25T07:30:19.521Z,42.59
2019-05-25T07:32:48.061Z,43.03
2019-05-25T07:35:16.600Z,41.84
2019-05-25T07:37:45.100Z,40.67
2019-05-25T07:40:14.207Z,40.92
2019-05-25T07:42:42.704Z,41.06
2019-05-25T07:45:12.882Z,40.84
2019-05-25T07:47:41.426Z,39.70
2019-05-25T07:50:12.112Z,39.70
2019-05-25T07:52:40.588Z,39.35
2019-05-25T07:55:09.208Z,41.79
2019-05-25T07:57:37.698Z,42.36
2019-05-25T08:00:07.253Z,40.92
2019-05-25T08:02:35.731Z,40.75
2019-05-25T08:05:07.386Z,38.27
2019-05-25T08:07:35.966Z,36.78
2019-05-25T08:10:06.278Z,35.11
2019-05-25T08:12:34.790Z,36.01
2019-05-25T08:15:04.597Z,36.17
2019-05-25T08:17:33.153Z,36.73
2019-05-25T08:20:01.668Z,35.33
2019-05-25T08:22:30.174Z,34.52
2019-05-25T08:24:58.652Z,32.89
2019-05-25T08:27:27.159Z,33.08
2019-05-25T08:29:55.637Z,33.83
2019-05-25T08:32:24.103Z,33.02
2019-05-25T08:34:52.612Z,32.77
2019-05-25T08:37:21.120Z,33.72
2019-05-25T08:39:49.602Z,31.08
2019-05-25T08:42:18.075Z,31.83
2019-05-25T08:44:46.565Z,32.53
2019-05-25T08:47:15.114Z,32.85
2019-05-25T08:49:43.617Z,33.78
2019-05-25T08:52:12.078Z,33.00
2019-05-25T08:54:40.585Z,34.95
2019-05-25T08:57:09.053Z,33.68
2019-05-25T08:59:37.600Z,33.09
2019-05-25T09:02:06.162Z,32.53
2019-05-25T09:04:34.644Z,33.84
2019-05-25T09:07:05.342Z,35.15
2019-05-25T09:09:33.889Z,30.83
2019-05-25T09:12:02.535Z,32.53
2019-05-25T09:14:30.938Z,32.38
2019-05-25T09:16:59.405Z,34.15
2019-05-25T09:19:27.970Z,33.74
2019-05-25T09:22:02.419Z,33.05
2019-05-25T09:24:26.725Z,33.00
2019-05-25T09:26:55.235Z,32.15
2019-05-25T09:29:24.654Z,33.46
2019-05-25T09:31:53.114Z,30.52
2019-05-25T09:34:21.617Z,31.75
2019-05-25T09:36:50.116Z,31.79
2019-05-25T09:39:18.611Z,31.54
2019-05-25T09:41:47.089Z,29.16
2019-05-25T09:44:15.589Z,29.64
2019-05-25T09:46:44.045Z,29.44
2019-05-25T09:49:12.531Z,29.26
2019-05-25T09:51:41.003Z,30.02
2019-05-25T09:54:09.482Z,31.14
2019-05-25T09:56:38.039Z,30.68
2019-05-25T09:59:19.206Z,31.33
2019-05-25T10:01:36.945Z,33.08
2019-05-25T10:04:05.991Z,32.54
2019-05-25T10:06:34.604Z,32.13
2019-05-25T10:09:03.775Z,29.74
2019-05-25T10:11:32.246Z,29.30
2019-05-25T10:14:00.721Z,34.47
2019-05-25T10:16:29.194Z,31.17
2019-05-25T10:18:57.659Z,33.63
2019-05-25T10:21:29.262Z,34.88
2019-05-25T10:23:57.732Z,34.44
2019-05-25T10:26:26.233Z,32.00
2019-05-25T10:28:54.743Z,33.71
2019-05-25T10:31:23.209Z,33.13
2019-05-25T10:33:51.688Z,29.97
2019-05-25T10:36:20.164Z,29.65
2019-05-25T10:38:48.640Z,31.90
2019-05-25T10:41:17.130Z,30.22
2019-05-25T10:43:45.602Z,32.79
2019-05-25T10:46:14.129Z,28.99
2019-05-25T10:48:42.565Z,33.56
2019-05-25T10:51:19.913Z,34.52
2019-05-25T10:53:48.422Z,30.96
2019-05-25T10:56:16.905Z,28.58
2019-05-25T10:58:45.425Z,31.90
2019-05-25T11:01:13.965Z,30.59
2019-05-25T11:03:42.482Z,25.94
2019-05-25T11:06:11.023Z,27.29
2019-05-25T11:08:39.530Z,25.23
2019-05-25T11:11:07.994Z,25.97
2019-05-25T11:13:36.553Z,27.09
2019-05-25T11:16:05.130Z,26.64
2019-05-25T11:18:33.634Z,26.75
2019-05-25T11:21:02.116Z,25.61
2019-05-25T11:23:30.619Z,26.69
2019-05-25T11:25:59.085Z,28.79
2019-05-25T11:28:27.601Z,25.39
2019-05-25T11:30:56.183Z,24.94
2019-05-25T11:33:24.723Z,26.63
2019-05-25T11:35:53.223Z,25.63
2019-05-25T11:38:21.721Z,26.51
2019-05-25T11:40:50.258Z,26.20
2019-05-25T11:43:18.760Z,27.12
2019-05-25T11:45:47.229Z,26.25
2019-05-25T11:48:16.187Z,27.66
2019-05-25T11:50:45.540Z,27.27
2019-05-25T11:53:14.043Z,27.99
2019-05-25T11:55:42.514Z,26.95
2019-05-25T11:58:11.038Z,27.84
2019-05-25T12:00:39.628Z,25.51
2019-05-25T12:03:08.128Z,28.18
2019-05-25T12:05:36.612Z,28.41
2019-05-25T12:08:05.182Z,27.64
2019-05-25T12:10:33.645Z,26.42
2019-05-25T12:13:02.133Z,27.98
2019-05-25T12:15:30.607Z,26.84
2019-05-25T12:17:59.132Z,27.79
2019-05-25T12:20:27.598Z,27.88
2019-05-25T12:22:56.070Z,31.83
2019-05-25T12:25:27.245Z,30.03
2019-05-25T12:27:55.750Z,30.29
2019-05-25T12:30:39.415Z,31.06
2019-05-25T12:32:54.945Z,26.35
2019-05-25T12:35:25.485Z,25.32
2019-05-25T12:37:53.955Z,27.61
2019-05-25T12:40:24.006Z,25.50
2019-05-25T12:42:52.511Z,28.11
2019-05-25T12:45:25.466Z,25.73
2019-05-25T12:47:54.474Z,26.29
2019-05-25T12:50:23.097Z,25.04
2019-05-25T12:52:51.575Z,27.04
2019-05-25T12:55:20.076Z,25.41
2019-05-25T12:57:51.210Z,29.26
2019-05-25T13:00:19.209Z,30.97
2019-05-25T13:02:47.679Z,29.09
2019-05-25T13:05:16.275Z,25.83
2019-05-25T13:07:45.859Z,25.79
2019-05-25T13:10:14.816Z,25.63
2019-05-25T13:12:43.336Z,27.49
2019-05-25T13:15:12.554Z,27.97
2019-05-25T13:17:41.044Z,27.42
2019-05-25T13:20:09.872Z,27.75
2019-05-25T13:22:38.350Z,27.59
2019-05-25T13:25:07.648Z,26.86
2019-05-25T13:27:36.109Z,26.97
2019-05-25T13:30:06.659Z,26.10
2019-05-25T13:32:35.135Z,31.36
2019-05-25T13:35:05.149Z,28.32
2019-05-25T13:37:33.923Z,29.76
2019-05-25T13:40:02.421Z,29.76
2019-05-25T13:42:30.886Z,28.31
2019-05-25T13:44:59.356Z,28.72
2019-05-25T13:47:27.831Z,27.23
2019-05-25T13:49:56.344Z,28.70
2019-05-25T13:52:24.830Z,27.27
2019-05-25T13:54:53.304Z,27.55
2019-05-25T13:57:21.779Z,26.97
2019-05-25T13:59:50.244Z,27.47
2019-05-25T14:02:18.728Z,28.06
2019-05-25T14:04:47.193Z,29.43
2019-05-25T14:07:15.679Z,29.07
2019-05-25T14:09:44.146Z,30.12
2019-05-25T14:12:12.642Z,31.40
2019-05-25T14:14:41.148Z,31.27
2019-05-25T14:17:09.617Z,30.88
2019-05-25T14:19:41.314Z,31.68
2019-05-25T14:22:08.276Z,33.26
2019-05-25T14:24:36.799Z,34.91
2019-05-25T14:27:05.400Z,35.14
2019-05-25T14:29:33.928Z,36.82
2019-05-25T14:32:02.389Z,36.43
2019-05-25T14:34:30.924Z,36.64
2019-05-25T14:36:59.387Z,36.91
2019-05-25T14:39:27.857Z,38.16
2019-05-25T14:41:56.353Z,39.15
2019-05-25T14:44:24.820Z,38.37
2019-05-25T14:46:53.312Z,37.98
2019-05-25T14:49:21.804Z,37.16
2019-05-25T14:51:50.301Z,37.22
2019-05-25T14:54:18.881Z,37.99
2019-05-25T14:56:47.342Z,39.15
2019-05-25T14:59:15.840Z,39.36
2019-05-25T15:02:01.128Z,39.20
2019-05-25T15:04:14.516Z,38.29
2019-05-25T15:06:43.123Z,39.27
2019-05-25T15:09:11.709Z,40.01
2019-05-25T15:11:40.177Z,39.39
2019-05-25T15:14:08.665Z,39.17
2019-05-25T15:16:37.146Z,39.23
2019-05-25T15:19:05.730Z,39.02
2019-05-25T15:21:34.348Z,41.35
2019-05-25T15:24:03.019Z,43.25
2019-05-25T15:26:31.518Z,45.78
2019-05-25T15:28:59.989Z,47.02
2019-05-25T15:31:28.557Z,47.58
2019-05-25T15:33:57.065Z,48.88
2019-05-25T15:36:25.566Z,48.03
2019-05-25T15:38:54.044Z,49.27
2019-05-25T15:41:22.623Z,49.14
2019-05-25T15:43:51.597Z,49.32
2019-05-25T15:46:20.105Z,49.00
2019-05-25T15:48:48.571Z,49.25
2019-05-25T15:51:17.083Z,49.83
2019-05-25T15:53:45.585Z,49.88
2019-05-25T15:56:14.134Z,50.91
2019-05-25T15:58:42.716Z,50.42
2019-05-25T16:01:12.133Z,52.13
2019-05-25T16:03:40.712Z,51.26
2019-05-25T16:06:09.981Z,49.61
2019-05-25T16:08:38.817Z,49.06
2019-05-25T16:11:07.303Z,48.92
2019-05-25T16:13:35.860Z,49.22
2019-05-25T16:16:04.955Z,49.30
2019-05-25T16:18:33.462Z,49.22
2019-05-25T16:21:01.996Z,49.66
2019-05-25T16:23:30.479Z,50.15
2019-05-25T16:25:59.113Z,50.06
2019-05-25T16:28:27.635Z,49.90
2019-05-25T16:30:56.125Z,49.65
2019-05-25T16:33:24.599Z,49.92
2019-05-25T16:35:53.111Z,50.90
2019-05-25T16:38:21.610Z,50.55
2019-05-25T16:40:50.093Z,50.70
2019-05-25T16:43:18.602Z,50.68
2019-05-25T16:45:47.106Z,49.80
2019-05-25T16:48:15.595Z,48.95
2019-05-25T16:50:44.084Z,48.48
2019-05-25T16:53:12.596Z,48.15
2019-05-25T16:55:41.074Z,48.05
2019-05-25T16:58:09.564Z,48.25
2019-05-25T17:00:38.140Z,47.65
2019-05-25T17:03:06.644Z,48.84
2019-05-25T17:05:35.295Z,48.21
2019-05-25T17:08:03.916Z,48.15
2019-05-25T17:10:32.502Z,49.32
2019-05-25T17:13:01.358Z,49.34
2019-05-25T17:15:29.858Z,48.90
2019-05-25T17:17:58.481Z,48.78
2019-05-25T17:20:27.227Z,49.25
2019-05-25T17:22:55.699Z,49.30
2019-05-25T17:25:24.360Z,49.37
2019-05-25T17:27:52.812Z,50.49
2019-05-25T17:30:24.371Z,50.58
2019-05-25T17:32:52.866Z,50.70
2019-05-25T17:35:21.449Z,51.73
2019-05-25T17:37:49.961Z,50.91
2019-05-25T17:40:18.561Z,51.50
2019-05-25T17:42:47.091Z,52.78
2019-05-25T17:45:15.723Z,52.78
2019-05-25T17:47:44.200Z,55.02
2019-05-25T17:50:13.147Z,53.27
2019-05-25T17:52:41.675Z,53.50
2019-05-25T17:55:10.465Z,53.03
2019-05-25T17:57:38.935Z,53.93
2019-05-25T18:00:08.482Z,53.80
2019-05-25T18:02:36.956Z,53.68
2019-05-25T18:05:08.934Z,54.37
2019-05-25T18:07:37.541Z,54.52
2019-05-25T18:10:09.307Z,55.54
2019-05-25T18:12:37.801Z,56.00
2019-05-25T18:15:10.443Z,56.37
2019-05-25T18:17:38.958Z,56.69
2019-05-25T18:20:11.436Z,56.70
2019-05-25T18:22:39.943Z,57.63
2019-05-25T18:25:08.669Z,57.99
2019-05-25T18:27:37.174Z,57.74
2019-05-25T18:30:07.990Z,58.46
2019-05-25T18:32:36.516Z,58.88
2019-05-25T18:35:07.344Z,58.94
2019-05-25T18:37:35.815Z,59.16
2019-05-25T18:40:06.711Z,58.76
2019-05-25T18:42:35.236Z,58.77
2019-05-25T18:45:04.518Z,58.46
2019-05-25T18:47:32.988Z,58.88
2019-05-25T18:50:01.530Z,58.95
2019-05-25T18:52:30.005Z,59.49
2019-05-25T18:54:58.494Z,60.08
2019-05-25T18:57:26.963Z,60.42
2019-05-25T18:59:55.446Z,60.19
2019-05-25T19:02:23.919Z,59.93
2019-05-25T19:04:59.524Z,59.08
2019-05-25T19:07:22.755Z,58.76
2019-05-25T19:09:51.281Z,58.52
2019-05-25T19:12:19.811Z,59.78
2019-05-25T19:14:48.286Z,59.06
2019-05-25T19:17:17.176Z,59.96
2019-05-25T19:19:47.306Z,61.15
2019-05-25T19:22:15.764Z,61.37
2019-05-25T19:24:45.851Z,61.74
2019-05-25T19:27:14.357Z,61.60
2019-05-25T19:29:42.854Z,61.56
2019-05-25T19:32:11.360Z,61.13
2019-05-25T19:34:39.839Z,60.99
2019-05-25T19:37:08.334Z,61.25
2019-05-25T19:39:36.823Z,61.54
2019-05-25T19:42:08.151Z,61.95
2019-05-25T19:44:36.633Z,61.79
2019-05-25T19:47:05.131Z,61.92
2019-05-25T19:49:33.608Z,62.03
2019-05-25T19:52:02.119Z,62.42
2019-05-25T19:54:30.624Z,62.71
2019-05-25T19:56:59.120Z,63.41
2019-05-25T19:59:27.601Z,64.39
2019-05-25T20:01:56.113Z,63.74
2019-05-25T20:04:24.591Z,63.23
2019-05-25T20:06:53.118Z,63.14
2019-05-25T20:09:21.626Z,63.14
2019-05-25T20:11:50.103Z,63.54
2019-05-25T20:14:19.734Z,63.23
2019-05-25T20:16:48.300Z,63.28
2019-05-25T20:19:16.787Z,63.11
2019-05-25T20:21:45.278Z,64.43
2019-05-25T20:24:13.757Z,64.06
2019-05-25T20:26:42.248Z,63.81
2019-05-25T20:29:10.729Z,64.23
2019-05-25T20:31:39.242Z,63.71
2019-05-25T20:34:07.724Z,63.14
2019-05-25T20:36:36.214Z,63.85
2019-05-25T20:39:07.665Z,64.05
2019-05-25T20:41:36.144Z,64.44
2019-05-25T20:44:05.219Z,64.80
2019-05-25T20:46:33.721Z,65.57
2019-05-25T20:49:02.217Z,65.43
2019-05-25T20:51:30.706Z,65.10
2019-05-25T20:53:59.203Z,65.24
2019-05-25T20:56:27.694Z,65.26
2019-05-25T20:58:56.171Z,64.29
2019-05-25T21:01:24.740Z,63.56
2019-05-25T21:03:53.234Z,62.95
2019-05-25T21:06:21.753Z,62.87
2019-05-25T21:08:50.261Z,62.85
2019-05-25T21:11:18.738Z,62.82
2019-05-25T21:13:47.247Z,63.16
2019-05-25T21:16:15.729Z,63.49
2019-05-25T21:18:44.243Z,63.36
2019-05-25T21:21:12.727Z,64.07
2019-05-25T21:23:41.211Z,64.95
2019-05-25T21:26:09.787Z,64.40
2019-05-25T21:28:38.307Z,63.85
2019-05-25T21:31:06.797Z,63.65
2019-05-25T21:33:35.307Z,63.48
2019-05-25T21:36:08.792Z,63.49
2019-05-25T21:38:34.110Z,64.01
2019-05-25T21:41:02.630Z,64.31
2019-05-25T21:43:31.116Z,64.57
2019-05-25T21:45:59.636Z,64.77
2019-05-25T21:48:28.124Z,64.51
2019-05-25T21:50:56.655Z,64.56
2019-05-25T21:53:25.206Z,64.76
2019-05-25T21:55:53.781Z,64.89
2019-05-25T21:58:22.340Z,64.27
2019-05-25T22:00:51.092Z,64.02
2019-05-25T22:03:19.988Z,64.92
2019-05-25T22:05:48.560Z,65.76
2019-05-25T22:08:17.117Z,66.11
2019-05-25T22:10:45.640Z,66.15
2019-05-25T22:13:26.957Z,65.76
2019-05-25T22:15:44.444Z,65.86
2019-05-25T22:18:12.932Z,66.41
2019-05-25T22:20:41.455Z,67.29
2019-05-25T22:23:09.970Z,67.03
2019-05-25T22:25:38.520Z,66.55
2019-05-25T22:28:07.121Z,66.03
2019-05-25T22:30:35.975Z,66.27
2019-05-25T22:33:05.463Z,67.13
2019-05-25T22:35:33.945Z,66.31
2019-05-25T22:38:02.545Z,65.76
2019-05-25T22:40:31.031Z,65.07
2019-05-25T22:42:59.504Z,65.08
2019-05-25T22:45:28.683Z,65.65
2019-05-25T22:47:57.184Z,65.61
2019-05-25T22:50:25.733Z,64.99
2019-05-25T22:52:54.247Z,64.81
2019-05-25T22:55:22.737Z,64.81
2019-05-25T22:57:51.225Z,64.99
2019-05-25T23:00:20.065Z,65.42
2019-05-25T23:02:48.543Z,66.93
2019-05-25T23:05:17.265Z,68.05
2019-05-25T23:07:45.788Z,67.05
2019-05-25T23:10:14.507Z,66.01
2019-05-25T23:12:43.017Z,65.91
2019-05-25T23:15:11.850Z,66.95
2019-05-25T23:17:40.419Z,66.57
2019-05-25T23:20:09.037Z,66.37
2019-05-25T23:22:37.583Z,66.46
2019-05-25T23:25:06.541Z,66.22
2019-05-25T23:27:35.038Z,65.70
2019-05-25T23:30:04.095Z,64.62
2019-05-25T23:32:32.610Z,64.62
2019-05-25T23:35:01.085Z,64.30
2019-05-25T23:37:29.559Z,63.78
2019-05-25T23:39:58.071Z,63.38
2019-05-25T23:42:26.652Z,62.80
2019-05-25T23:44:55.136Z,62.80
2019-05-25T23:47:23.619Z,64.12
2019-05-25T23:49:52.160Z,64.30
2019-05-25T23:52:20.619Z,62.98
2019-05-25T23:54:49.125Z,62.94
2019-05-25T23:57:17.619Z,62.87
2019-05-25T23:59:46.123Z,62.79
